Brantwood, Wisconsin
Current Conditions -  °F | °C
As of 12:35 PM on Saturday 25 Oct 2014 (Local Time) from KPBH Reporting Station
Clear Clear  
Wind Chill: 13°   Ceiling: Unl
Heat Index: 13°   Visibility: 10mi
Dew Point: -1°   Wind: 12mph
Humidity: 40%   Direction: 310°NW
Pressure: 29.9"   Gusts: 23mph
Location:  45.56°N, 90.12°W
Report Text: KPBH 251735Z AUTO 31010G20KT 10SM CLR 13/M01 A2990 RMK AO2 T01261006
Loading
Personal Weather Stations






























Interactive Weather Map
Tropical Storm Tracking
New forecast layout! Learn more

10-Day Weather Forecast

Advertisements
Track Severe Weather on mobile